createdAt,value
2018-12-17T00:01:14.819Z,61.23
2018-12-17T00:03:41.930Z,32.27
2018-12-17T00:06:08.912Z,28.50
2018-12-17T00:08:35.858Z,42.23
2018-12-17T00:11:02.830Z,103.07
2018-12-17T00:13:29.767Z,284.07
2018-12-17T00:15:56.772Z,171.63
2018-12-17T00:18:23.728Z,110.27
2018-12-17T00:20:50.665Z,56.80
2018-12-17T00:23:17.611Z,170.20
2018-12-17T00:25:44.545Z,80.77
2018-12-17T00:28:11.488Z,82.30
2018-12-17T00:30:38.943Z,33.47
2018-12-17T00:33:05.899Z,23.80
2018-12-17T00:35:32.857Z,31.97
2018-12-17T00:37:59.964Z,82.97
2018-12-17T00:40:26.920Z,85.07
2018-12-17T00:42:53.870Z,63.00
2018-12-17T00:45:20.833Z,38.27
2018-12-17T00:47:47.795Z,42.60
2018-12-17T00:50:14.744Z,53.70
2018-12-17T00:52:41.694Z,22.03
2018-12-17T00:55:08.679Z,17.23
2018-12-17T00:57:35.601Z,19.50
2018-12-17T01:00:02.944Z,21.37
2018-12-17T01:02:29.920Z,53.50
2018-12-17T01:04:56.873Z,86.73
2018-12-17T01:07:29.793Z,46.47
2018-12-17T01:09:56.764Z,20.23
2018-12-17T01:12:23.695Z,29.60
2018-12-17T01:14:50.648Z,73.20
2018-12-17T01:17:17.621Z,61.00
2018-12-17T01:19:44.556Z,100.23
2018-12-17T01:22:11.504Z,66.17
2018-12-17T01:24:38.476Z,49.83
2018-12-17T01:27:05.408Z,30.40
2018-12-17T01:29:32.352Z,44.83
2018-12-17T01:31:59.811Z,33.43
2018-12-17T01:34:26.750Z,57.47
2018-12-17T01:36:53.672Z,26.87
2018-12-17T01:39:20.685Z,41.90
2018-12-17T01:41:47.625Z,57.83
2018-12-17T01:44:14.553Z,42.27
2018-12-17T01:46:41.571Z,30.07
2018-12-17T01:49:08.498Z,26.67
2018-12-17T01:51:35.447Z,38.30
2018-12-17T01:54:02.392Z,45.50
2018-12-17T01:56:29.348Z,43.87
2018-12-17T01:58:56.317Z,39.17
2018-12-17T02:01:23.275Z,60.30
2018-12-17T02:03:50.240Z,53.87
2018-12-17T02:06:17.182Z,64.47
2018-12-17T02:08:44.165Z,59.57
2018-12-17T02:11:11.124Z,43.13
2018-12-17T02:13:38.070Z,64.60
2018-12-17T02:16:05.022Z,103.57
2018-12-17T02:18:32.188Z,65.33
2018-12-17T02:20:59.144Z,170.83
2018-12-17T02:23:26.099Z,122.23
2018-12-17T02:25:53.033Z,290.13
2018-12-17T02:28:19.963Z,142.57
2018-12-17T02:30:46.957Z,70.67
2018-12-17T02:33:14.082Z,118.70
2018-12-17T02:35:41.037Z,152.10
2018-12-17T02:38:08.006Z,104.83
2018-12-17T02:40:34.950Z,103.23
2018-12-17T02:43:01.947Z,141.90
2018-12-17T02:45:28.861Z,88.70
2018-12-17T02:47:55.808Z,46.63
2018-12-17T02:50:22.762Z,31.37
2018-12-17T02:52:49.773Z,66.23
2018-12-17T02:55:16.716Z,23.73
2018-12-17T02:57:43.664Z,125.47
2018-12-17T03:00:10.649Z,87.37
2018-12-17T03:02:37.572Z,31.80
2018-12-17T03:05:04.834Z,17.97
2018-12-17T03:07:31.812Z,21.17
2018-12-17T03:09:58.748Z,17.90
2018-12-17T03:12:25.729Z,22.93
2018-12-17T03:14:52.685Z,20.53
2018-12-17T03:17:19.628Z,37.33
2018-12-17T03:19:46.603Z,22.13
2018-12-17T03:22:13.588Z,20.30
2018-12-17T03:24:40.533Z,20.47
2018-12-17T03:27:07.516Z,19.17
2018-12-17T03:29:34.568Z,19.03
2018-12-17T03:32:01.503Z,28.37
2018-12-17T03:34:28.942Z,28.50
2018-12-17T03:36:55.925Z,28.07
2018-12-17T03:39:22.873Z,25.33
2018-12-17T03:41:49.816Z,24.17
2018-12-17T03:44:16.787Z,20.33
2018-12-17T03:46:43.739Z,14.60
2018-12-17T03:49:10.679Z,17.70
2018-12-17T03:51:37.640Z,17.67
2018-12-17T03:54:04.575Z,18.07
2018-12-17T03:56:31.508Z,17.23
2018-12-17T03:58:59.472Z,16.03
2018-12-17T04:01:25.474Z,17.93
2018-12-17T04:03:52.418Z,13.77
2018-12-17T04:06:19.363Z,13.03
2018-12-17T04:08:46.314Z,12.27
2018-12-17T04:11:13.262Z,13.47
2018-12-17T04:13:40.274Z,12.53
2018-12-17T04:16:07.212Z,11.87
2018-12-17T04:18:34.164Z,12.57
2018-12-17T04:21:01.132Z,11.77
2018-12-17T04:23:28.068Z,12.80
2018-12-17T04:25:54.999Z,12.33
2018-12-17T04:28:21.981Z,14.63
2018-12-17T04:30:48.932Z,13.07
2018-12-17T04:33:15.894Z,12.23
2018-12-17T04:35:43.133Z,13.13
2018-12-17T04:38:10.063Z,14.03
2018-12-17T04:40:37.024Z,13.43
2018-12-17T04:43:03.981Z,13.10
2018-12-17T04:45:30.914Z,12.27
2018-12-17T04:47:57.851Z,14.17
2018-12-17T04:50:24.869Z,12.23
2018-12-17T04:52:51.833Z,17.97
2018-12-17T04:55:18.801Z,12.40
2018-12-17T04:57:45.762Z,14.47
2018-12-17T05:00:12.689Z,14.67
2018-12-17T05:02:39.643Z,17.83
2018-12-17T05:05:06.647Z,17.70
2018-12-17T05:07:33.585Z,16.97
2018-12-17T05:10:00.521Z,15.37
2018-12-17T05:12:27.493Z,14.03
2018-12-17T05:14:54.489Z,13.53
2018-12-17T05:17:21.467Z,13.83
2018-12-17T05:19:49.075Z,18.83
2018-12-17T05:22:16.001Z,14.43
2018-12-17T05:24:42.952Z,12.00
2018-12-17T05:27:09.947Z,11.87
2018-12-17T05:29:36.884Z,11.73
2018-12-17T05:32:03.841Z,11.10
2018-12-17T05:34:30.834Z,11.77
2018-12-17T05:36:58.101Z,10.70
2018-12-17T05:39:25.038Z,11.97
2018-12-17T05:41:52.029Z,11.30
2018-12-17T05:44:18.969Z,14.63
2018-12-17T05:46:45.917Z,12.77
2018-12-17T05:49:12.878Z,11.73
2018-12-17T05:51:39.902Z,11.40
2018-12-17T05:54:06.838Z,13.70
2018-12-17T05:56:33.809Z,13.47
2018-12-17T05:59:00.765Z,12.80
2018-12-17T06:01:27.714Z,11.57
2018-12-17T06:03:54.683Z,14.20
2018-12-17T06:06:21.645Z,12.63
2018-12-17T06:08:48.579Z,13.93
2018-12-17T06:11:15.541Z,14.57
2018-12-17T06:13:42.494Z,16.77
2018-12-17T06:16:09.464Z,24.93
2018-12-17T06:18:36.453Z,21.30
2018-12-17T06:21:03.412Z,19.90
2018-12-17T06:23:30.369Z,22.90
2018-12-17T06:25:57.355Z,18.40
2018-12-17T06:28:24.292Z,18.10
2018-12-17T06:30:51.260Z,16.23
2018-12-17T06:33:18.229Z,17.77
2018-12-17T06:35:45.175Z,16.03
2018-12-17T06:38:12.532Z,16.97
2018-12-17T06:40:39.513Z,15.67
2018-12-17T06:43:06.449Z,13.63
2018-12-17T06:45:33.394Z,11.77
2018-12-17T06:48:00.335Z,13.50
2018-12-17T06:50:27.281Z,12.10
2018-12-17T06:52:54.223Z,12.10
2018-12-17T06:55:21.194Z,12.77
2018-12-17T06:57:48.136Z,13.07
2018-12-17T07:00:15.060Z,11.97
2018-12-17T07:02:42.022Z,12.90
2018-12-17T07:05:08.960Z,12.53
2018-12-17T07:07:35.964Z,14.30
2018-12-17T07:10:03.340Z,12.90
2018-12-17T07:12:30.278Z,13.57
2018-12-17T07:14:57.231Z,13.30
2018-12-17T07:17:24.189Z,14.23
2018-12-17T07:19:51.148Z,14.73
2018-12-17T07:22:18.089Z,12.93
2018-12-17T07:24:45.093Z,12.17
2018-12-17T07:27:12.073Z,11.50
2018-12-17T07:29:39.052Z,12.57
2018-12-17T07:32:06.024Z,12.00
2018-12-17T07:34:32.968Z,11.83
2018-12-17T07:36:59.917Z,11.27
2018-12-17T07:39:27.075Z,12.80
2018-12-17T07:41:54.065Z,13.13
2018-12-17T07:44:21.105Z,14.47
2018-12-17T07:46:48.078Z,13.40
2018-12-17T07:49:15.027Z,10.93
2018-12-17T07:51:41.980Z,12.20
2018-12-17T07:54:08.945Z,12.47
2018-12-17T07:56:35.880Z,10.97
2018-12-17T07:59:02.814Z,11.70
2018-12-17T08:01:29.814Z,11.60
2018-12-17T08:03:56.751Z,11.20
2018-12-17T08:06:23.705Z,12.30
2018-12-17T08:08:50.708Z,12.67
2018-12-17T08:11:17.796Z,10.83
2018-12-17T08:13:44.747Z,13.47
2018-12-17T08:16:11.709Z,13.23
2018-12-17T08:18:38.737Z,13.10
2018-12-17T08:21:05.683Z,11.00
2018-12-17T08:23:32.653Z,13.23
2018-12-17T08:25:59.598Z,15.13
2018-12-17T08:28:26.549Z,13.17
2018-12-17T08:30:53.521Z,13.67
2018-12-17T08:33:20.465Z,13.63
2018-12-17T08:35:47.412Z,12.87
2018-12-17T08:38:14.366Z,12.40
2018-12-17T08:40:41.795Z,12.93
2018-12-17T08:43:08.753Z,12.37
2018-12-17T08:45:35.716Z,11.33
2018-12-17T08:48:02.659Z,12.40
2018-12-17T08:50:29.616Z,13.40
2018-12-17T08:52:56.612Z,11.13
2018-12-17T08:55:23.570Z,11.10
2018-12-17T08:57:50.520Z,11.70
2018-12-17T09:00:17.486Z,10.37
2018-12-17T09:02:44.439Z,11.43
2018-12-17T09:05:11.372Z,10.40
2018-12-17T09:07:38.362Z,10.57
2018-12-17T09:10:06.772Z,10.33
2018-12-17T09:12:33.717Z,9.37
2018-12-17T09:15:00.676Z,9.13
2018-12-17T09:17:27.618Z,8.80
2018-12-17T09:19:54.552Z,10.93
2018-12-17T09:22:21.512Z,8.87
2018-12-17T09:24:48.499Z,9.10
2018-12-17T09:27:15.402Z,9.03
2018-12-17T09:29:42.367Z,8.37
2018-12-17T09:32:09.297Z,8.03
2018-12-17T09:34:36.246Z,7.87
2018-12-17T09:37:03.247Z,9.20
2018-12-17T09:39:30.184Z,8.47
2018-12-17T09:41:57.709Z,7.23
2018-12-17T09:44:24.668Z,7.53
2018-12-17T09:46:51.672Z,7.63
2018-12-17T09:49:18.607Z,9.00
2018-12-17T09:51:45.632Z,7.23
2018-12-17T09:54:12.582Z,7.23
2018-12-17T09:56:39.544Z,7.10
2018-12-17T09:59:06.540Z,7.53
2018-12-17T10:01:33.501Z,7.33
2018-12-17T10:04:00.436Z,6.73
2018-12-17T10:06:27.441Z,6.37
2018-12-17T10:08:54.386Z,7.00
2018-12-17T10:11:21.315Z,9.03
2018-12-17T10:13:48.281Z,6.43
2018-12-17T10:16:15.232Z,6.90
2018-12-17T10:18:42.174Z,8.70
2018-12-17T10:21:09.147Z,15.47
2018-12-17T10:23:36.121Z,8.77
2018-12-17T10:26:03.068Z,7.37
2018-12-17T10:28:30.032Z,7.00
2018-12-17T10:30:56.988Z,7.40
2018-12-17T10:33:23.924Z,8.63
2018-12-17T10:35:50.899Z,11.63
2018-12-17T10:38:18.074Z,8.73
2018-12-17T10:40:45.019Z,7.20
2018-12-17T10:43:12.337Z,6.73
2018-12-17T10:45:39.313Z,8.33
2018-12-17T10:48:06.283Z,8.53
2018-12-17T10:50:33.265Z,6.43
2018-12-17T10:53:00.217Z,9.40
2018-12-17T10:55:27.161Z,9.67
2018-12-17T10:57:54.133Z,9.17
2018-12-17T11:00:27.000Z,8.93
2018-12-17T11:02:55.117Z,8.27
2018-12-17T11:05:22.084Z,7.97
2018-12-17T11:07:49.061Z,8.80
2018-12-17T11:10:16.034Z,7.97
2018-12-17T11:12:42.968Z,7.57
2018-12-17T11:15:10.293Z,8.27
2018-12-17T11:17:37.309Z,7.27
2018-12-17T11:20:06.267Z,8.10
2018-12-17T11:22:33.260Z,7.63
2018-12-17T11:25:00.229Z,7.63
2018-12-17T11:27:27.168Z,7.17
2018-12-17T11:29:54.116Z,8.80
2018-12-17T11:32:21.080Z,5.83
2018-12-17T11:34:48.031Z,5.00
2018-12-17T11:37:15.014Z,6.50
2018-12-17T11:39:41.969Z,14.93
2018-12-17T11:42:08.976Z,12.07
2018-12-17T11:44:36.335Z,13.80
2018-12-17T11:47:03.308Z,16.90
2018-12-17T11:49:30.261Z,8.90
2018-12-17T11:51:57.217Z,6.77
2018-12-17T11:54:24.185Z,4.83
2018-12-17T11:57:05.264Z,7.00
2018-12-17T11:59:32.276Z,5.67
2018-12-17T12:01:59.203Z,4.60
2018-12-17T12:04:26.151Z,4.57
2018-12-17T12:06:53.149Z,4.53
2018-12-17T12:09:25.185Z,6.27
2018-12-17T12:11:52.160Z,4.90
2018-12-17T12:14:19.149Z,8.67
2018-12-17T12:16:46.116Z,7.30
2018-12-17T12:19:13.062Z,8.87
2018-12-17T12:21:40.070Z,4.07
2018-12-17T12:24:06.999Z,8.13
2018-12-17T12:26:33.947Z,7.13
2018-12-17T12:29:00.964Z,9.50
2018-12-17T12:31:27.928Z,5.47
2018-12-17T12:33:54.880Z,5.87
2018-12-17T12:36:21.888Z,8.03
2018-12-17T12:38:48.899Z,8.93
2018-12-17T12:41:15.897Z,6.87
2018-12-17T12:43:42.853Z,9.20
2018-12-17T12:46:09.983Z,5.57
2018-12-17T12:48:37.000Z,8.10
2018-12-17T12:51:03.917Z,6.57
2018-12-17T12:53:30.855Z,7.03
2018-12-17T12:55:57.806Z,5.47
2018-12-17T12:58:24.797Z,6.23
2018-12-17T13:00:51.746Z,4.60
2018-12-17T13:03:18.686Z,4.83
2018-12-17T13:05:45.666Z,5.87
2018-12-17T13:08:12.616Z,6.97
2018-12-17T13:10:39.557Z,5.97
2018-12-17T13:13:06.737Z,8.50
2018-12-17T13:15:33.689Z,8.77
2018-12-17T13:18:01.279Z,7.53
2018-12-17T13:20:28.720Z,7.87
2018-12-17T13:22:55.717Z,9.33
2018-12-17T13:25:27.481Z,8.90
2018-12-17T13:27:54.531Z,8.23
2018-12-17T13:30:21.808Z,8.90
2018-12-17T13:32:48.948Z,7.03
2018-12-17T13:35:15.958Z,6.97
2018-12-17T13:37:43.207Z,10.23
2018-12-17T13:40:10.549Z,12.90
2018-12-17T13:42:37.533Z,10.70
2018-12-17T13:45:04.952Z,5.93
2018-12-17T13:47:32.462Z,10.43
2018-12-17T13:50:19.082Z,7.37
2018-12-17T13:52:46.484Z,11.93
2018-12-17T13:55:13.725Z,6.60
2018-12-17T13:57:40.872Z,6.80
2018-12-17T14:00:09.142Z,9.13
2018-12-17T14:02:36.275Z,7.83
2018-12-17T14:05:03.765Z,8.73
2018-12-17T14:07:30.722Z,9.03
2018-12-17T14:10:03.580Z,11.03
2018-12-17T14:12:30.573Z,15.00
2018-12-17T14:14:57.572Z,12.33
2018-12-17T14:17:30.349Z,11.07
2018-12-17T14:20:03.417Z,10.60
2018-12-17T14:22:30.400Z,8.13
2018-12-17T14:24:57.340Z,11.57
2018-12-17T14:27:24.302Z,9.00
2018-12-17T14:29:51.251Z,9.63
2018-12-17T14:32:18.410Z,9.73
2018-12-17T14:34:45.403Z,12.40
2018-12-17T14:37:12.341Z,8.57
2018-12-17T14:39:39.308Z,11.17
2018-12-17T14:42:06.785Z,9.43
2018-12-17T14:44:35.146Z,8.83
2018-12-17T14:47:02.477Z,11.70
2018-12-17T14:49:29.876Z,7.93
2018-12-17T14:51:56.825Z,10.20
2018-12-17T14:54:23.776Z,12.63
2018-12-17T14:56:51.081Z,12.50
2018-12-17T14:59:18.027Z,12.77
2018-12-17T15:01:44.978Z,14.23
2018-12-17T15:04:11.950Z,14.47
2018-12-17T15:06:39.007Z,19.53
2018-12-17T15:09:06.546Z,13.43
2018-12-17T15:11:33.603Z,9.60
2018-12-17T15:14:00.564Z,10.73
2018-12-17T15:16:27.509Z,13.17
2018-12-17T15:18:54.455Z,10.53
2018-12-17T15:21:21.476Z,13.40
2018-12-17T15:23:48.421Z,17.87
2018-12-17T15:26:15.418Z,11.07
2018-12-17T15:28:42.461Z,14.87
2018-12-17T15:31:09.416Z,11.93
2018-12-17T15:33:36.410Z,15.73
2018-12-17T15:36:03.376Z,14.53
2018-12-17T15:38:30.364Z,16.47
2018-12-17T15:40:57.340Z,12.63
2018-12-17T15:43:24.289Z,13.40
2018-12-17T15:45:51.272Z,11.33
2018-12-17T15:48:18.361Z,15.27
2018-12-17T15:50:45.516Z,10.50
2018-12-17T15:53:12.509Z,8.07
2018-12-17T15:55:39.457Z,11.67
2018-12-17T15:58:06.425Z,8.80
2018-12-17T16:00:33.381Z,10.93
2018-12-17T16:03:00.333Z,10.37
2018-12-17T16:05:27.271Z,9.73
2018-12-17T16:07:54.264Z,10.00
2018-12-17T16:10:21.284Z,9.27
2018-12-17T16:12:48.260Z,10.00
2018-12-17T16:15:15.204Z,12.77
2018-12-17T16:17:42.285Z,10.80
2018-12-17T16:20:09.448Z,9.77
2018-12-17T16:22:36.444Z,11.63
2018-12-17T16:25:04.581Z,7.90
2018-12-17T16:27:31.527Z,10.73
2018-12-17T16:29:58.498Z,16.90
2018-12-17T16:32:25.501Z,13.83
2018-12-17T16:34:52.465Z,24.30
2018-12-17T16:37:19.412Z,34.33
2018-12-17T16:39:46.429Z,22.77
2018-12-17T16:42:13.380Z,16.10
2018-12-17T16:44:40.348Z,13.60
2018-12-17T16:47:07.329Z,15.27
2018-12-17T16:49:34.297Z,17.90
2018-12-17T16:52:01.668Z,15.70
2018-12-17T16:54:28.734Z,6.47
2018-12-17T16:56:55.704Z,6.03
2018-12-17T16:59:22.675Z,5.87
2018-12-17T17:01:49.648Z,10.53
2018-12-17T17:04:16.592Z,8.20
2018-12-17T17:06:43.532Z,11.20
2018-12-17T17:09:10.500Z,3.40
2018-12-17T17:11:37.545Z,4.27
2018-12-17T17:14:04.496Z,2.93
2018-12-17T17:16:31.463Z,4.87
2018-12-17T17:18:58.527Z,4.13
2018-12-17T17:21:25.505Z,4.17
2018-12-17T17:23:52.759Z,4.53
2018-12-17T17:26:19.685Z,2.73
2018-12-17T17:28:46.666Z,2.10
2018-12-17T17:31:13.696Z,3.33
2018-12-17T17:33:40.652Z,2.60
2018-12-17T17:36:07.608Z,2.93
2018-12-17T17:38:34.621Z,5.20
2018-12-17T17:41:01.965Z,3.17
2018-12-17T17:43:28.905Z,2.97
2018-12-17T17:45:56.087Z,3.80
2018-12-17T17:48:23.044Z,5.20
2018-12-17T17:50:49.980Z,2.50
2018-12-17T17:53:17.305Z,3.53
2018-12-17T17:55:44.252Z,3.10
2018-12-17T17:58:11.210Z,2.83
2018-12-17T18:00:38.161Z,4.33
2018-12-17T18:03:05.108Z,4.33
2018-12-17T18:05:32.085Z,3.70
2018-12-17T18:07:59.052Z,4.23
2018-12-17T18:10:25.992Z,5.50
2018-12-17T18:12:52.948Z,4.60
2018-12-17T18:15:19.927Z,5.23
2018-12-17T18:17:46.872Z,3.67
2018-12-17T18:20:13.817Z,2.57
2018-12-17T18:22:40.833Z,6.00
2018-12-17T18:25:07.767Z,4.73
2018-12-17T18:27:34.740Z,5.57
2018-12-17T18:30:01.766Z,4.30
2018-12-17T18:32:28.775Z,2.93
2018-12-17T18:34:55.707Z,4.90
2018-12-17T18:37:22.693Z,6.27
2018-12-17T18:39:49.643Z,6.80
2018-12-17T18:42:16.604Z,3.90
2018-12-17T18:44:43.597Z,3.73
2018-12-17T18:47:10.544Z,4.60
2018-12-17T18:49:37.498Z,5.80
2018-12-17T18:52:04.477Z,5.20
2018-12-17T18:54:31.785Z,5.57
2018-12-17T18:56:58.748Z,2.43
2018-12-17T18:59:25.765Z,4.53
2018-12-17T19:01:52.731Z,2.67
2018-12-17T19:04:19.713Z,3.17
2018-12-17T19:06:46.730Z,3.47
2018-12-17T19:09:13.751Z,3.03
2018-12-17T19:11:40.648Z,3.77
2018-12-17T19:14:07.596Z,5.37
2018-12-17T19:16:34.534Z,3.30
2018-12-17T19:19:01.504Z,3.80
2018-12-17T19:21:28.463Z,4.33
2018-12-17T19:23:55.417Z,3.57
2018-12-17T19:26:22.366Z,4.17
2018-12-17T19:28:49.353Z,4.10
2018-12-17T19:31:16.324Z,4.57
2018-12-17T19:33:43.344Z,5.70
2018-12-17T19:36:10.307Z,4.43
2018-12-17T19:38:37.251Z,6.00
2018-12-17T19:41:04.192Z,4.83
2018-12-17T19:43:31.144Z,3.43
2018-12-17T19:45:58.084Z,3.87
2018-12-17T19:48:25.037Z,3.87
2018-12-17T19:50:52.059Z,3.30
2018-12-17T19:53:18.985Z,4.43
2018-12-17T19:55:46.201Z,4.07
2018-12-17T19:58:13.173Z,4.07
2018-12-17T20:00:40.116Z,4.13
2018-12-17T20:03:07.071Z,4.70
2018-12-17T20:05:34.063Z,5.57
2018-12-17T20:08:01.055Z,5.93
2018-12-17T20:10:28.063Z,4.83
2018-12-17T20:12:55.020Z,3.53
2018-12-17T20:15:22.112Z,5.17
2018-12-17T20:17:49.076Z,4.60
2018-12-17T20:20:16.049Z,4.97
2018-12-17T20:22:43.045Z,5.27
2018-12-17T20:25:10.027Z,7.70
2018-12-17T20:27:36.989Z,4.97
2018-12-17T20:30:04.011Z,6.47
2018-12-17T20:32:31.011Z,4.57
2018-12-17T20:34:57.975Z,5.20
2018-12-17T20:37:24.937Z,12.50
2018-12-17T20:39:51.884Z,4.17
2018-12-17T20:42:18.866Z,5.67
2018-12-17T20:44:45.809Z,5.47
2018-12-17T20:47:12.766Z,6.40
2018-12-17T20:49:39.750Z,5.03
2018-12-17T20:52:06.712Z,7.87
2018-12-17T20:54:33.680Z,4.47
2018-12-17T20:57:00.956Z,3.67
2018-12-17T20:59:27.896Z,5.43
2018-12-17T21:01:54.847Z,5.10
2018-12-17T21:04:21.840Z,3.60
2018-12-17T21:06:50.068Z,3.73
2018-12-17T21:09:15.744Z,5.87
2018-12-17T21:11:42.725Z,3.87
2018-12-17T21:14:09.647Z,6.73
2018-12-17T21:16:36.598Z,6.00
2018-12-17T21:19:03.555Z,5.53
2018-12-17T21:21:30.492Z,3.63
2018-12-17T21:23:57.443Z,3.97
2018-12-17T21:26:24.421Z,5.03
2018-12-17T21:28:51.386Z,4.97
2018-12-17T21:31:18.324Z,4.30
2018-12-17T21:33:45.292Z,5.37
2018-12-17T21:36:12.264Z,5.50
2018-12-17T21:38:39.260Z,6.23
2018-12-17T21:41:06.238Z,7.27
2018-12-17T21:43:36.102Z,6.67
2018-12-17T21:46:00.149Z,5.33
2018-12-17T21:48:27.105Z,4.00
2018-12-17T21:50:54.053Z,4.20
2018-12-17T21:53:21.047Z,5.77
2018-12-17T21:55:48.011Z,4.27
2018-12-17T21:58:15.527Z,6.10
2018-12-17T22:00:42.468Z,5.67
2018-12-17T22:03:13.184Z,4.70
2018-12-17T22:05:36.485Z,4.90
2018-12-17T22:08:03.629Z,7.03
2018-12-17T22:10:34.875Z,7.93
2018-12-17T22:13:02.507Z,6.37
2018-12-17T22:15:29.476Z,6.17
2018-12-17T22:17:56.471Z,5.60
2018-12-17T22:20:23.455Z,4.07
2018-12-17T22:22:50.411Z,5.13
2018-12-17T22:25:17.409Z,5.83
2018-12-17T22:27:44.411Z,4.70
2018-12-17T22:30:11.364Z,5.23
2018-12-17T22:32:38.378Z,5.07
2018-12-17T22:35:05.361Z,3.73
2018-12-17T22:37:32.317Z,4.00
2018-12-17T22:39:59.308Z,4.90
2018-12-17T22:42:26.291Z,4.53
2018-12-17T22:44:53.235Z,3.40
2018-12-17T22:47:20.312Z,3.83
2018-12-17T22:49:47.274Z,6.43
2018-12-17T22:52:14.221Z,5.13
2018-12-17T22:54:41.184Z,4.83
2018-12-17T22:57:08.170Z,3.77
2018-12-17T22:59:35.591Z,5.97
2018-12-17T23:02:02.617Z,4.83
2018-12-17T23:04:29.584Z,3.50
2018-12-17T23:06:56.589Z,4.57
2018-12-17T23:09:22.811Z,3.77
2018-12-17T23:12:07.681Z,5.33
2018-12-17T23:14:46.299Z,6.03
2018-12-17T23:17:25.026Z,5.47
2018-12-17T23:19:52.010Z,3.60
2018-12-17T23:22:20.219Z,3.30
2018-12-17T23:24:47.302Z,4.67
2018-12-17T23:27:15.141Z,4.87
2018-12-17T23:29:42.087Z,3.43
2018-12-17T23:32:09.029Z,3.67
2018-12-17T23:34:35.991Z,4.03
2018-12-17T23:37:02.933Z,4.50
2018-12-17T23:39:30.153Z,4.27
2018-12-17T23:41:57.114Z,3.80
2018-12-17T23:44:24.137Z,3.83
2018-12-17T23:46:51.100Z,5.40
2018-12-17T23:49:18.079Z,5.93
2018-12-17T23:51:45.076Z,5.40
2018-12-17T23:54:12.035Z,5.73
2018-12-17T23:56:40.048Z,4.77
2018-12-17T23:59:07.010Z,7.07
